sensor_id;sensor_type;location;lat;lon;timestamp;temperature;humidity
10873;DHT22;34586;53.616;10.032;2023-11-19T00:01:28;6.00;99.90
10873;DHT22;34586;53.616;10.032;2023-11-19T00:03:53;6.00;99.90
10873;DHT22;34586;53.616;10.032;2023-11-19T00:06:19;6.00;99.90
10873;DHT22;34586;53.616;10.032;2023-11-19T00:08:44;6.00;99.90
10873;DHT22;34586;53.616;10.032;2023-11-19T00:11:10;6.00;99.90
10873;DHT22;34586;53.616;10.032;2023-11-19T00:13:36;6.00;99.90
10873;DHT22;34586;53.616;10.032;2023-11-19T00:16:02;6.00;99.90
10873;DHT22;34586;53.616;10.032;2023-11-19T00:18:29;6.00;99.90
10873;DHT22;34586;53.616;10.032;2023-11-19T00:20:55;6.00;99.90
10873;DHT22;34586;53.616;10.032;2023-11-19T00:23:20;6.00;99.90
10873;DHT22;34586;53.616;10.032;2023-11-19T00:25:46;6.00;99.90
10873;DHT22;34586;53.616;10.032;2023-11-19T00:28:13;6.00;99.90
10873;DHT22;34586;53.616;10.032;2023-11-19T00:30:38;6.10;99.90
10873;DHT22;34586;53.616;10.032;2023-11-19T00:33:06;6.00;99.90
10873;DHT22;34586;53.616;10.032;2023-11-19T00:35:31;6.10;99.90
10873;DHT22;34586;53.616;10.032;2023-11-19T00:37:58;6.10;99.90
10873;DHT22;34586;53.616;10.032;2023-11-19T00:40:23;6.10;99.90
10873;DHT22;34586;53.616;10.032;2023-11-19T00:42:49;6.10;99.90
10873;DHT22;34586;53.616;10.032;2023-11-19T00:45:15;6.10;99.90
10873;DHT22;34586;53.616;10.032;2023-11-19T00:47:40;6.00;99.90
10873;DHT22;34586;53.616;10.032;2023-11-19T00:50:07;6.00;99.90
10873;DHT22;34586;53.616;10.032;2023-11-19T00:52:37;6.00;99.90
10873;DHT22;34586;53.616;10.032;2023-11-19T00:55:03;6.10;99.90
10873;DHT22;34586;53.616;10.032;2023-11-19T00:57:30;6.10;99.90
10873;DHT22;34586;53.616;10.032;2023-11-19T00:59:58;6.10;99.90
10873;DHT22;34586;53.616;10.032;2023-11-19T01:02:24;6.00;99.90
10873;DHT22;34586;53.616;10.032;2023-11-19T01:04:50;6.10;99.90
10873;DHT22;34586;53.616;10.032;2023-11-19T01:07:16;6.10;99.90
10873;DHT22;34586;53.616;10.032;2023-11-19T01:09:42;6.10;99.90
10873;DHT22;34586;53.616;10.032;2023-11-19T01:12:08;6.00;99.90
10873;DHT22;34586;53.616;10.032;2023-11-19T01:14:36;6.10;99.90
10873;DHT22;34586;53.616;10.032;2023-11-19T01:17:02;6.10;99.90
10873;DHT22;34586;53.616;10.032;2023-11-19T01:19:27;6.10;99.90
10873;DHT22;34586;53.616;10.032;2023-11-19T01:21:54;6.10;99.90
10873;DHT22;34586;53.616;10.032;2023-11-19T01:24:20;6.10;99.90
10873;DHT22;34586;53.616;10.032;2023-11-19T01:26:46;6.10;99.90
10873;DHT22;34586;53.616;10.032;2023-11-19T01:29:12;6.10;99.90
10873;DHT22;34586;53.616;10.032;2023-11-19T01:31:42;6.10;99.90
10873;DHT22;34586;53.616;10.032;2023-11-19T01:34:07;6.10;99.90
10873;DHT22;34586;53.616;10.032;2023-11-19T01:36:33;6.10;99.90
10873;DHT22;34586;53.616;10.032;2023-11-19T01:38:59;6.10;99.90
10873;DHT22;34586;53.616;10.032;2023-11-19T01:41:24;6.10;99.90
10873;DHT22;34586;53.616;10.032;2023-11-19T01:43:50;6.10;99.90
10873;DHT22;34586;53.616;10.032;2023-11-19T01:46:16;6.20;99.90
10873;DHT22;34586;53.616;10.032;2023-11-19T01:48:45;6.20;99.90
10873;DHT22;34586;53.616;10.032;2023-11-19T01:51:12;6.10;99.90
10873;DHT22;34586;53.616;10.032;2023-11-19T01:53:39;6.20;99.90
10873;DHT22;34586;53.616;10.032;2023-11-19T01:56:07;6.20;99.90
10873;DHT22;34586;53.616;10.032;2023-11-19T01:58:36;6.20;99.90
10873;DHT22;34586;53.616;10.032;2023-11-19T02:01:01;6.20;99.90
10873;DHT22;34586;53.616;10.032;2023-11-19T02:03:31;6.20;99.90
10873;DHT22;34586;53.616;10.032;2023-11-19T02:05:59;6.20;99.90
10873;DHT22;34586;53.616;10.032;2023-11-19T02:08:24;6.20;99.90
10873;DHT22;34586;53.616;10.032;2023-11-19T02:10:51;6.20;99.90
10873;DHT22;34586;53.616;10.032;2023-11-19T02:13:20;6.20;99.90
10873;DHT22;34586;53.616;10.032;2023-11-19T02:15:46;6.20;99.90
10873;DHT22;34586;53.616;10.032;2023-11-19T02:20:50;6.20;99.90
10873;DHT22;34586;53.616;10.032;2023-11-19T02:23:16;6.20;99.90
10873;DHT22;34586;53.616;10.032;2023-11-19T02:25:43;6.30;99.90
10873;DHT22;34586;53.616;10.032;2023-11-19T02:28:10;6.30;99.90
10873;DHT22;34586;53.616;10.032;2023-11-19T02:30:37;6.30;99.90
10873;DHT22;34586;53.616;10.032;2023-11-19T02:33:03;6.30;99.90
10873;DHT22;34586;53.616;10.032;2023-11-19T02:35:31;6.30;99.90
10873;DHT22;34586;53.616;10.032;2023-11-19T02:37:57;6.30;99.90
10873;DHT22;34586;53.616;10.032;2023-11-19T02:40:24;6.30;99.90
10873;DHT22;34586;53.616;10.032;2023-11-19T02:42:52;6.30;99.90
10873;DHT22;34586;53.616;10.032;2023-11-19T02:45:18;6.30;99.90
10873;DHT22;34586;53.616;10.032;2023-11-19T02:47:44;6.30;99.90
10873;DHT22;34586;53.616;10.032;2023-11-19T02:50:12;6.30;99.90
10873;DHT22;34586;53.616;10.032;2023-11-19T02:52:43;6.40;99.90
10873;DHT22;34586;53.616;10.032;2023-11-19T02:55:10;6.40;99.90
10873;DHT22;34586;53.616;10.032;2023-11-19T02:57:38;6.40;99.90
10873;DHT22;34586;53.616;10.032;2023-11-19T03:00:17;6.40;99.90
10873;DHT22;34586;53.616;10.032;2023-11-19T03:02:44;6.40;99.90
10873;DHT22;34586;53.616;10.032;2023-11-19T03:05:15;6.40;99.90
10873;DHT22;34586;53.616;10.032;2023-11-19T03:07:42;6.40;99.90
10873;DHT22;34586;53.616;10.032;2023-11-19T03:10:09;6.40;99.90
10873;DHT22;34586;53.616;10.032;2023-11-19T03:12:39;6.40;99.90
10873;DHT22;34586;53.616;10.032;2023-11-19T03:15:05;6.40;99.90
10873;DHT22;34586;53.616;10.032;2023-11-19T03:17:31;6.40;99.90
10873;DHT22;34586;53.616;10.032;2023-11-19T03:19:56;6.50;99.90
10873;DHT22;34586;53.616;10.032;2023-11-19T03:22:22;6.50;99.90
10873;DHT22;34586;53.616;10.032;2023-11-19T03:24:50;6.50;99.90
10873;DHT22;34586;53.616;10.032;2023-11-19T03:27:16;6.50;99.90
10873;DHT22;34586;53.616;10.032;2023-11-19T03:29:42;6.50;99.90
10873;DHT22;34586;53.616;10.032;2023-11-19T03:32:08;6.60;99.90
10873;DHT22;34586;53.616;10.032;2023-11-19T03:34:34;6.50;99.90
10873;DHT22;34586;53.616;10.032;2023-11-19T03:36:59;6.60;99.90
10873;DHT22;34586;53.616;10.032;2023-11-19T03:39:25;6.60;99.90
10873;DHT22;34586;53.616;10.032;2023-11-19T03:41:52;6.60;99.90
10873;DHT22;34586;53.616;10.032;2023-11-19T03:44:18;6.60;99.90
10873;DHT22;34586;53.616;10.032;2023-11-19T03:46:44;6.70;99.90
10873;DHT22;34586;53.616;10.032;2023-11-19T03:49:10;6.70;99.90
10873;DHT22;34586;53.616;10.032;2023-11-19T03:51:35;6.70;99.90
10873;DHT22;34586;53.616;10.032;2023-11-19T03:54:01;6.80;99.90
10873;DHT22;34586;53.616;10.032;2023-11-19T03:56:26;6.80;99.90
10873;DHT22;34586;53.616;10.032;2023-11-19T03:58:52;6.80;99.90
10873;DHT22;34586;53.616;10.032;2023-11-19T04:01:18;6.90;99.90
10873;DHT22;34586;53.616;10.032;2023-11-19T04:03:44;6.90;99.90
10873;DHT22;34586;53.616;10.032;2023-11-19T04:06:09;6.90;99.90
10873;DHT22;34586;53.616;10.032;2023-11-19T04:08:35;6.90;99.90
10873;DHT22;34586;53.616;10.032;2023-11-19T04:11:03;6.90;99.90
10873;DHT22;34586;53.616;10.032;2023-11-19T04:13:28;6.90;99.90
10873;DHT22;34586;53.616;10.032;2023-11-19T04:15:54;6.90;99.90
10873;DHT22;34586;53.616;10.032;2023-11-19T04:18:19;7.00;99.90
10873;DHT22;34586;53.616;10.032;2023-11-19T04:20:45;6.90;99.90
10873;DHT22;34586;53.616;10.032;2023-11-19T04:23:10;7.00;99.90
10873;DHT22;34586;53.616;10.032;2023-11-19T04:25:37;7.00;99.90
10873;DHT22;34586;53.616;10.032;2023-11-19T04:28:03;7.00;99.90
10873;DHT22;34586;53.616;10.032;2023-11-19T04:30:29;7.00;99.90
10873;DHT22;34586;53.616;10.032;2023-11-19T04:32:57;7.00;99.90
10873;DHT22;34586;53.616;10.032;2023-11-19T04:35:23;7.00;99.90
10873;DHT22;34586;53.616;10.032;2023-11-19T04:37:48;7.00;99.90
10873;DHT22;34586;53.616;10.032;2023-11-19T04:40:14;7.00;99.90
10873;DHT22;34586;53.616;10.032;2023-11-19T04:42:40;7.10;99.90
10873;DHT22;34586;53.616;10.032;2023-11-19T04:45:06;7.10;99.90
10873;DHT22;34586;53.616;10.032;2023-11-19T04:47:33;7.10;99.90
10873;DHT22;34586;53.616;10.032;2023-11-19T04:49:59;7.10;99.90
10873;DHT22;34586;53.616;10.032;2023-11-19T04:52:25;7.10;99.90
10873;DHT22;34586;53.616;10.032;2023-11-19T04:54:51;7.10;99.90
10873;DHT22;34586;53.616;10.032;2023-11-19T04:57:17;7.10;99.90
10873;DHT22;34586;53.616;10.032;2023-11-19T04:59:42;7.20;99.90
10873;DHT22;34586;53.616;10.032;2023-11-19T05:02:08;7.10;99.90
10873;DHT22;34586;53.616;10.032;2023-11-19T05:04:34;7.20;99.90
10873;DHT22;34586;53.616;10.032;2023-11-19T05:07:00;7.20;99.90
10873;DHT22;34586;53.616;10.032;2023-11-19T05:09:26;7.20;99.90
10873;DHT22;34586;53.616;10.032;2023-11-19T05:11:51;7.20;99.90
10873;DHT22;34586;53.616;10.032;2023-11-19T05:14:17;7.30;99.90
10873;DHT22;34586;53.616;10.032;2023-11-19T05:16:45;7.30;99.90
10873;DHT22;34586;53.616;10.032;2023-11-19T05:19:11;7.30;99.90
10873;DHT22;34586;53.616;10.032;2023-11-19T05:21:37;7.40;99.90
10873;DHT22;34586;53.616;10.032;2023-11-19T05:24:03;7.40;99.90
10873;DHT22;34586;53.616;10.032;2023-11-19T05:26:31;7.40;99.90
10873;DHT22;34586;53.616;10.032;2023-11-19T05:28:57;7.50;99.90
10873;DHT22;34586;53.616;10.032;2023-11-19T05:31:22;7.50;99.90
10873;DHT22;34586;53.616;10.032;2023-11-19T05:33:48;7.50;99.90
10873;DHT22;34586;53.616;10.032;2023-11-19T05:36:15;7.50;99.90
10873;DHT22;34586;53.616;10.032;2023-11-19T05:38:40;7.60;99.90
10873;DHT22;34586;53.616;10.032;2023-11-19T05:41:06;7.60;99.90
10873;DHT22;34586;53.616;10.032;2023-11-19T05:43:32;7.60;99.90
10873;DHT22;34586;53.616;10.032;2023-11-19T05:45:58;7.70;99.90
10873;DHT22;34586;53.616;10.032;2023-11-19T05:48:26;7.70;99.90
10873;DHT22;34586;53.616;10.032;2023-11-19T05:50:51;7.70;99.90
10873;DHT22;34586;53.616;10.032;2023-11-19T05:53:17;7.80;99.90
10873;DHT22;34586;53.616;10.032;2023-11-19T05:55:43;7.80;99.90
10873;DHT22;34586;53.616;10.032;2023-11-19T05:58:15;7.80;99.90
10873;DHT22;34586;53.616;10.032;2023-11-19T06:00:41;7.80;99.90
10873;DHT22;34586;53.616;10.032;2023-11-19T06:03:10;7.90;99.90
10873;DHT22;34586;53.616;10.032;2023-11-19T06:05:35;7.90;99.90
10873;DHT22;34586;53.616;10.032;2023-11-19T06:08:01;7.80;99.90
10873;DHT22;34586;53.616;10.032;2023-11-19T06:10:27;8.00;99.90
10873;DHT22;34586;53.616;10.032;2023-11-19T06:12:55;8.10;99.90
10873;DHT22;34586;53.616;10.032;2023-11-19T06:15:22;8.40;99.90
10873;DHT22;34586;53.616;10.032;2023-11-19T06:17:48;8.40;99.90
10873;DHT22;34586;53.616;10.032;2023-11-19T06:20:13;8.50;99.90
10873;DHT22;34586;53.616;10.032;2023-11-19T06:22:39;8.50;99.90
10873;DHT22;34586;53.616;10.032;2023-11-19T06:25:08;8.70;99.90
10873;DHT22;34586;53.616;10.032;2023-11-19T06:27:33;8.70;99.90
10873;DHT22;34586;53.616;10.032;2023-11-19T06:30:00;8.80;99.90
10873;DHT22;34586;53.616;10.032;2023-11-19T06:32:25;8.90;99.90
10873;DHT22;34586;53.616;10.032;2023-11-19T06:34:51;8.90;99.90
10873;DHT22;34586;53.616;10.032;2023-11-19T06:37:16;9.10;99.90
10873;DHT22;34586;53.616;10.032;2023-11-19T06:39:42;9.30;99.90
10873;DHT22;34586;53.616;10.032;2023-11-19T06:42:08;9.40;99.90
10873;DHT22;34586;53.616;10.032;2023-11-19T06:44:33;9.50;99.90
10873;DHT22;34586;53.616;10.032;2023-11-19T06:46:59;9.60;99.90
10873;DHT22;34586;53.616;10.032;2023-11-19T06:49:25;9.70;99.90
10873;DHT22;34586;53.616;10.032;2023-11-19T06:51:51;9.70;99.90
10873;DHT22;34586;53.616;10.032;2023-11-19T06:54:16;9.80;99.90
10873;DHT22;34586;53.616;10.032;2023-11-19T06:56:42;9.90;99.90
10873;DHT22;34586;53.616;10.032;2023-11-19T06:59:08;10.00;99.90
10873;DHT22;34586;53.616;10.032;2023-11-19T07:01:35;9.90;99.90
10873;DHT22;34586;53.616;10.032;2023-11-19T07:04:02;10.00;99.90
10873;DHT22;34586;53.616;10.032;2023-11-19T07:06:33;10.20;99.90
10873;DHT22;34586;53.616;10.032;2023-11-19T07:09:00;10.20;99.90
10873;DHT22;34586;53.616;10.032;2023-11-19T07:11:37;10.20;99.90
10873;DHT22;34586;53.616;10.032;2023-11-19T07:14:04;10.30;99.90
10873;DHT22;34586;53.616;10.032;2023-11-19T07:16:31;10.30;99.90
10873;DHT22;34586;53.616;10.032;2023-11-19T07:18:56;10.40;99.90
10873;DHT22;34586;53.616;10.032;2023-11-19T07:21:22;10.50;99.90
10873;DHT22;34586;53.616;10.032;2023-11-19T07:23:47;10.50;99.90
10873;DHT22;34586;53.616;10.032;2023-11-19T07:26:13;10.70;99.90
10873;DHT22;34586;53.616;10.032;2023-11-19T07:28:38;10.60;99.90
10873;DHT22;34586;53.616;10.032;2023-11-19T07:31:07;10.60;99.90
10873;DHT22;34586;53.616;10.032;2023-11-19T07:33:35;10.70;99.90
10873;DHT22;34586;53.616;10.032;2023-11-19T07:36:01;10.60;99.90
10873;DHT22;34586;53.616;10.032;2023-11-19T07:38:26;10.70;99.90
10873;DHT22;34586;53.616;10.032;2023-11-19T07:40:52;10.70;99.90
10873;DHT22;34586;53.616;10.032;2023-11-19T07:43:18;10.70;99.90
10873;DHT22;34586;53.616;10.032;2023-11-19T07:45:43;10.80;99.90
10873;DHT22;34586;53.616;10.032;2023-11-19T07:48:10;10.80;99.90
10873;DHT22;34586;53.616;10.032;2023-11-19T07:50:41;10.90;99.90
10873;DHT22;34586;53.616;10.032;2023-11-19T07:53:07;10.90;99.90
10873;DHT22;34586;53.616;10.032;2023-11-19T07:55:33;10.90;99.90
10873;DHT22;34586;53.616;10.032;2023-11-19T07:57:59;10.90;99.90
10873;DHT22;34586;53.616;10.032;2023-11-19T08:00:24;10.90;99.90
10873;DHT22;34586;53.616;10.032;2023-11-19T08:02:50;11.00;99.90
10873;DHT22;34586;53.616;10.032;2023-11-19T08:05:15;11.00;99.90
10873;DHT22;34586;53.616;10.032;2023-11-19T08:07:41;11.10;99.90
10873;DHT22;34586;53.616;10.032;2023-11-19T08:10:07;11.10;99.90
10873;DHT22;34586;53.616;10.032;2023-11-19T08:12:35;11.10;99.90
10873;DHT22;34586;53.616;10.032;2023-11-19T08:15:02;11.10;99.90
10873;DHT22;34586;53.616;10.032;2023-11-19T08:17:28;11.10;99.90
10873;DHT22;34586;53.616;10.032;2023-11-19T08:19:54;11.10;99.90
10873;DHT22;34586;53.616;10.032;2023-11-19T08:22:20;11.20;99.90
10873;DHT22;34586;53.616;10.032;2023-11-19T08:24:45;11.20;99.90
10873;DHT22;34586;53.616;10.032;2023-11-19T08:27:11;11.20;99.90
10873;DHT22;34586;53.616;10.032;2023-11-19T08:29:36;11.20;99.90
10873;DHT22;34586;53.616;10.032;2023-11-19T08:32:02;11.30;99.90
10873;DHT22;34586;53.616;10.032;2023-11-19T08:34:29;11.20;99.90
10873;DHT22;34586;53.616;10.032;2023-11-19T08:36:55;11.20;99.90
10873;DHT22;34586;53.616;10.032;2023-11-19T08:39:21;11.30;99.90
10873;DHT22;34586;53.616;10.032;2023-11-19T08:41:49;11.40;99.90
10873;DHT22;34586;53.616;10.032;2023-11-19T08:44:16;11.40;99.90
10873;DHT22;34586;53.616;10.032;2023-11-19T08:46:51;11.40;99.90
10873;DHT22;34586;53.616;10.032;2023-11-19T08:49:17;11.50;99.90
10873;DHT22;34586;53.616;10.032;2023-11-19T08:51:42;11.50;99.90
10873;DHT22;34586;53.616;10.032;2023-11-19T08:54:08;11.50;99.90
10873;DHT22;34586;53.616;10.032;2023-11-19T08:56:34;11.50;99.90
10873;DHT22;34586;53.616;10.032;2023-11-19T08:59:01;11.50;99.90
10873;DHT22;34586;53.616;10.032;2023-11-19T09:01:26;11.50;99.90
10873;DHT22;34586;53.616;10.032;2023-11-19T09:03:52;11.50;99.90
10873;DHT22;34586;53.616;10.032;2023-11-19T09:06:17;11.50;99.90
10873;DHT22;34586;53.616;10.032;2023-11-19T09:08:43;11.50;99.90
10873;DHT22;34586;53.616;10.032;2023-11-19T09:11:09;11.60;99.90
10873;DHT22;34586;53.616;10.032;2023-11-19T09:13:35;11.50;99.90
10873;DHT22;34586;53.616;10.032;2023-11-19T09:16:01;11.60;99.90
10873;DHT22;34586;53.616;10.032;2023-11-19T09:18:30;11.50;99.90
10873;DHT22;34586;53.616;10.032;2023-11-19T09:20:55;11.50;99.90
10873;DHT22;34586;53.616;10.032;2023-11-19T09:23:21;11.50;99.90
10873;DHT22;34586;53.616;10.032;2023-11-19T09:25:47;11.60;99.90
10873;DHT22;34586;53.616;10.032;2023-11-19T09:28:12;11.50;99.90
10873;DHT22;34586;53.616;10.032;2023-11-19T09:30:39;11.60;99.90
10873;DHT22;34586;53.616;10.032;2023-11-19T09:33:05;11.60;99.90
10873;DHT22;34586;53.616;10.032;2023-11-19T09:35:31;11.80;99.90
10873;DHT22;34586;53.616;10.032;2023-11-19T09:37:56;11.70;99.90
10873;DHT22;34586;53.616;10.032;2023-11-19T09:40:22;11.80;99.90
10873;DHT22;34586;53.616;10.032;2023-11-19T09:42:47;11.80;99.90
10873;DHT22;34586;53.616;10.032;2023-11-19T09:45:14;11.90;99.90
10873;DHT22;34586;53.616;10.032;2023-11-19T09:47:43;12.00;99.90
10873;DHT22;34586;53.616;10.032;2023-11-19T09:50:16;12.00;99.90
10873;DHT22;34586;53.616;10.032;2023-11-19T09:52:42;12.00;99.90
10873;DHT22;34586;53.616;10.032;2023-11-19T09:55:08;12.10;99.90
10873;DHT22;34586;53.616;10.032;2023-11-19T09:57:35;12.20;99.90
10873;DHT22;34586;53.616;10.032;2023-11-19T10:00:03;12.30;99.90
10873;DHT22;34586;53.616;10.032;2023-11-19T10:02:31;12.20;99.90
10873;DHT22;34586;53.616;10.032;2023-11-19T10:04:59;12.20;99.90
10873;DHT22;34586;53.616;10.032;2023-11-19T10:07:28;12.20;99.90
10873;DHT22;34586;53.616;10.032;2023-11-19T10:09:53;12.20;99.90
10873;DHT22;34586;53.616;10.032;2023-11-19T10:12:19;12.20;99.90
10873;DHT22;34586;53.616;10.032;2023-11-19T10:14:46;12.20;99.90
10873;DHT22;34586;53.616;10.032;2023-11-19T10:17:13;12.30;99.90
10873;DHT22;34586;53.616;10.032;2023-11-19T10:19:40;12.30;99.90
10873;DHT22;34586;53.616;10.032;2023-11-19T10:22:07;12.20;99.90
10873;DHT22;34586;53.616;10.032;2023-11-19T10:24:34;12.20;99.90
10873;DHT22;34586;53.616;10.032;2023-11-19T10:27:00;12.10;99.90
10873;DHT22;34586;53.616;10.032;2023-11-19T10:29:29;12.10;99.90
10873;DHT22;34586;53.616;10.032;2023-11-19T10:31:58;12.10;99.90
10873;DHT22;34586;53.616;10.032;2023-11-19T10:34:26;12.00;99.90
10873;DHT22;34586;53.616;10.032;2023-11-19T10:36:51;12.00;99.90
10873;DHT22;34586;53.616;10.032;2023-11-19T10:39:18;12.00;99.90
10873;DHT22;34586;53.616;10.032;2023-11-19T10:41:43;11.90;99.90
10873;DHT22;34586;53.616;10.032;2023-11-19T10:44:09;11.90;99.90
10873;DHT22;34586;53.616;10.032;2023-11-19T10:46:40;11.90;99.90
10873;DHT22;34586;53.616;10.032;2023-11-19T10:49:07;12.00;99.90
10873;DHT22;34586;53.616;10.032;2023-11-19T10:51:33;12.00;99.90
10873;DHT22;34586;53.616;10.032;2023-11-19T10:54:05;12.00;99.90
10873;DHT22;34586;53.616;10.032;2023-11-19T10:56:32;11.90;99.90
10873;DHT22;34586;53.616;10.032;2023-11-19T10:58:59;11.80;99.90
10873;DHT22;34586;53.616;10.032;2023-11-19T11:01:29;11.80;99.90
10873;DHT22;34586;53.616;10.032;2023-11-19T11:03:59;11.70;99.90
10873;DHT22;34586;53.616;10.032;2023-11-19T11:06:27;11.70;99.90
10873;DHT22;34586;53.616;10.032;2023-11-19T11:08:54;11.80;99.90
10873;DHT22;34586;53.616;10.032;2023-11-19T11:11:20;11.80;99.90
10873;DHT22;34586;53.616;10.032;2023-11-19T11:13:47;11.80;99.90
10873;DHT22;34586;53.616;10.032;2023-11-19T11:16:15;11.80;99.90
10873;DHT22;34586;53.616;10.032;2023-11-19T11:18:45;11.90;99.90
10873;DHT22;34586;53.616;10.032;2023-11-19T11:21:16;11.90;99.90
10873;DHT22;34586;53.616;10.032;2023-11-19T11:26:59;12.00;99.90
10873;DHT22;34586;53.616;10.032;2023-11-19T11:29:41;12.10;99.90
10873;DHT22;34586;53.616;10.032;2023-11-19T11:32:20;12.10;99.90
10873;DHT22;34586;53.616;10.032;2023-11-19T11:35:07;12.10;99.90
10873;DHT22;34586;53.616;10.032;2023-11-19T11:37:39;12.10;99.90
10873;DHT22;34586;53.616;10.032;2023-11-19T11:40:05;12.10;99.90
10873;DHT22;34586;53.616;10.032;2023-11-19T11:42:38;12.10;99.90
10873;DHT22;34586;53.616;10.032;2023-11-19T11:45:06;12.10;99.90
10873;DHT22;34586;53.616;10.032;2023-11-19T11:50:11;12.10;99.90
10873;DHT22;34586;53.616;10.032;2023-11-19T11:55:28;12.10;99.90
10873;DHT22;34586;53.616;10.032;2023-11-19T11:57:54;12.00;99.90
10873;DHT22;34586;53.616;10.032;2023-11-19T12:00:27;11.90;99.90
10873;DHT22;34586;53.616;10.032;2023-11-19T12:03:01;11.90;99.90
10873;DHT22;34586;53.616;10.032;2023-11-19T12:05:27;11.80;99.90
10873;DHT22;34586;53.616;10.032;2023-11-19T12:07:59;11.80;99.90
10873;DHT22;34586;53.616;10.032;2023-11-19T12:10:28;11.80;99.90
10873;DHT22;34586;53.616;10.032;2023-11-19T12:12:58;11.90;99.90
10873;DHT22;34586;53.616;10.032;2023-11-19T12:15:24;12.00;99.90
10873;DHT22;34586;53.616;10.032;2023-11-19T12:17:52;12.10;99.90
10873;DHT22;34586;53.616;10.032;2023-11-19T12:20:19;12.30;99.90
10873;DHT22;34586;53.616;10.032;2023-11-19T12:22:45;12.40;99.90
10873;DHT22;34586;53.616;10.032;2023-11-19T12:25:13;12.40;99.90
10873;DHT22;34586;53.616;10.032;2023-11-19T12:27:56;12.30;99.90
10873;DHT22;34586;53.616;10.032;2023-11-19T12:30:23;12.20;99.90
10873;DHT22;34586;53.616;10.032;2023-11-19T12:32:53;12.20;99.90
10873;DHT22;34586;53.616;10.032;2023-11-19T12:35:22;12.20;99.90
10873;DHT22;34586;53.616;10.032;2023-11-19T12:37:50;12.30;99.90
10873;DHT22;34586;53.616;10.032;2023-11-19T12:42:50;12.40;99.90
10873;DHT22;34586;53.616;10.032;2023-11-19T12:45:16;12.40;99.90
10873;DHT22;34586;53.616;10.032;2023-11-19T12:47:43;12.40;99.90
10873;DHT22;34586;53.616;10.032;2023-11-19T12:50:09;12.30;99.90
10873;DHT22;34586;53.616;10.032;2023-11-19T12:52:38;12.20;99.90
10873;DHT22;34586;53.616;10.032;2023-11-19T12:55:05;12.30;99.90
10873;DHT22;34586;53.616;10.032;2023-11-19T12:57:41;12.40;99.90
10873;DHT22;34586;53.616;10.032;2023-11-19T13:00:18;12.40;99.90
10873;DHT22;34586;53.616;10.032;2023-11-19T13:02:50;12.50;99.90
10873;DHT22;34586;53.616;10.032;2023-11-19T13:05:33;12.50;99.90
10873;DHT22;34586;53.616;10.032;2023-11-19T13:08:07;12.50;99.90
10873;DHT22;34586;53.616;10.032;2023-11-19T13:10:50;12.40;99.90
10873;DHT22;34586;53.616;10.032;2023-11-19T13:13:16;12.40;99.90
10873;DHT22;34586;53.616;10.032;2023-11-19T13:15:42;12.40;99.90
10873;DHT22;34586;53.616;10.032;2023-11-19T13:18:12;12.30;99.90
10873;DHT22;34586;53.616;10.032;2023-11-19T13:20:38;12.30;99.90
10873;DHT22;34586;53.616;10.032;2023-11-19T13:23:05;12.20;99.90
10873;DHT22;34586;53.616;10.032;2023-11-19T13:25:32;12.20;99.90
10873;DHT22;34586;53.616;10.032;2023-11-19T13:27:59;12.20;99.90
10873;DHT22;34586;53.616;10.032;2023-11-19T13:30:25;12.20;99.90
10873;DHT22;34586;53.616;10.032;2023-11-19T13:32:52;12.30;99.90
10873;DHT22;34586;53.616;10.032;2023-11-19T13:35:20;12.30;99.90
10873;DHT22;34586;53.616;10.032;2023-11-19T13:37:45;12.20;99.90
10873;DHT22;34586;53.616;10.032;2023-11-19T13:40:12;12.10;99.90
10873;DHT22;34586;53.616;10.032;2023-11-19T13:42:44;12.10;99.90
10873;DHT22;34586;53.616;10.032;2023-11-19T13:45:12;12.00;99.90
10873;DHT22;34586;53.616;10.032;2023-11-19T13:47:43;11.90;99.90
10873;DHT22;34586;53.616;10.032;2023-11-19T13:50:10;11.80;99.90
10873;DHT22;34586;53.616;10.032;2023-11-19T13:52:37;11.80;99.90
10873;DHT22;34586;53.616;10.032;2023-11-19T13:55:09;11.80;99.90
10873;DHT22;34586;53.616;10.032;2023-11-19T13:57:35;11.70;99.90
10873;DHT22;34586;53.616;10.032;2023-11-19T14:00:05;11.70;99.90
10873;DHT22;34586;53.616;10.032;2023-11-19T14:02:49;11.80;99.90
10873;DHT22;34586;53.616;10.032;2023-11-19T14:05:16;11.70;99.90
10873;DHT22;34586;53.616;10.032;2023-11-19T14:07:44;11.80;99.90
10873;DHT22;34586;53.616;10.032;2023-11-19T14:10:13;11.80;99.90
10873;DHT22;34586;53.616;10.032;2023-11-19T14:12:40;11.80;99.90
10873;DHT22;34586;53.616;10.032;2023-11-19T14:15:07;11.90;99.90
10873;DHT22;34586;53.616;10.032;2023-11-19T14:17:35;11.80;99.90
10873;DHT22;34586;53.616;10.032;2023-11-19T14:20:01;11.80;99.90
10873;DHT22;34586;53.616;10.032;2023-11-19T14:22:28;11.90;99.90
10873;DHT22;34586;53.616;10.032;2023-11-19T14:24:55;11.80;99.90
10873;DHT22;34586;53.616;10.032;2023-11-19T14:27:21;11.80;99.90
10873;DHT22;34586;53.616;10.032;2023-11-19T14:29:47;11.80;99.90
10873;DHT22;34586;53.616;10.032;2023-11-19T14:32:13;11.80;99.90
10873;DHT22;34586;53.616;10.032;2023-11-19T14:34:39;11.80;99.90
10873;DHT22;34586;53.616;10.032;2023-11-19T14:37:04;11.80;99.90
10873;DHT22;34586;53.616;10.032;2023-11-19T14:39:30;11.70;99.90
10873;DHT22;34586;53.616;10.032;2023-11-19T14:41:57;11.50;99.90
10873;DHT22;34586;53.616;10.032;2023-11-19T14:44:29;11.50;99.90
10873;DHT22;34586;53.616;10.032;2023-11-19T14:46:54;11.40;99.90
10873;DHT22;34586;53.616;10.032;2023-11-19T14:49:20;11.40;99.90
10873;DHT22;34586;53.616;10.032;2023-11-19T14:51:45;11.20;99.90
10873;DHT22;34586;53.616;10.032;2023-11-19T14:54:11;10.90;99.90
10873;DHT22;34586;53.616;10.032;2023-11-19T14:56:37;10.90;99.90
10873;DHT22;34586;53.616;10.032;2023-11-19T14:59:04;10.70;99.90
10873;DHT22;34586;53.616;10.032;2023-11-19T15:01:29;10.70;99.90
10873;DHT22;34586;53.616;10.032;2023-11-19T15:03:56;10.50;99.90
10873;DHT22;34586;53.616;10.032;2023-11-19T15:06:24;10.50;99.90
10873;DHT22;34586;53.616;10.032;2023-11-19T15:08:52;10.50;99.90
10873;DHT22;34586;53.616;10.032;2023-11-19T15:11:18;10.40;99.90
10873;DHT22;34586;53.616;10.032;2023-11-19T15:13:43;10.30;99.90
10873;DHT22;34586;53.616;10.032;2023-11-19T15:16:09;10.40;99.90
10873;DHT22;34586;53.616;10.032;2023-11-19T15:18:39;10.30;99.90
10873;DHT22;34586;53.616;10.032;2023-11-19T15:21:05;10.20;99.90
10873;DHT22;34586;53.616;10.032;2023-11-19T15:23:31;10.20;99.90
10873;DHT22;34586;53.616;10.032;2023-11-19T15:25:56;10.10;99.90
10873;DHT22;34586;53.616;10.032;2023-11-19T15:28:22;10.10;99.90
10873;DHT22;34586;53.616;10.032;2023-11-19T15:30:48;10.00;99.90
10873;DHT22;34586;53.616;10.032;2023-11-19T15:33:14;10.00;99.90
10873;DHT22;34586;53.616;10.032;2023-11-19T15:35:40;9.90;99.90